Time;durP1;ratioP1;P1;durP2;ratioP2;P2;SDS_P1;SDS_P2;PMS_P1;PMS_P2;Temp;Humidity;BMP_temperature;BMP_pressure;BME280_temperature;BME280_humidity;BME280_pressure;Samples;Min_cycle;Max_cycle;Signal;HPM_P1;HPM_P2
2020/12/23 00:00:32;;;;;;;40.85;15.50;;;;;;;-3.81;74.34;101284.66;1626044;88;21856;-78
2020/12/23 00:03:37;;;;;;;70.80;47.78;;;;;;;-3.84;74.65;101282.14;1626108;88;21286;-78
2020/12/23 00:06:43;;;;;;;42.70;23.10;;;;;;;-3.79;74.88;101284.16;1625908;88;21329;-79
2020/12/23 00:09:51;;;;;;;41.70;24.10;;;;;;;-3.83;74.88;101287.41;1624690;88;21857;-79
2020/12/23 00:12:56;;;;;;;38.60;18.62;;;;;;;-3.82;75.06;101285.60;1625061;88;21793;-79
2020/12/23 00:16:02;;;;;;;32.28;16.15;;;;;;;-3.88;75.29;101290.73;1624960;88;21863;-79
2020/12/23 00:19:10;;;;;;;35.78;19.35;;;;;;;-3.93;75.52;101281.56;1624926;88;21344;-79
2020/12/23 00:22:15;;;;;;;29.45;15.65;;;;;;;-3.93;75.81;101285.57;1625535;88;21214;-79
2020/12/23 00:25:21;;;;;;;31.65;14.23;;;;;;;-3.86;75.83;101281.73;1626147;88;21333;-79
2020/12/23 00:28:27;;;;;;;96.00;65.92;;;;;;;-3.80;75.79;101267.72;1625972;88;21230;-79
2020/12/23 00:31:33;;;;;;;39.45;19.30;;;;;;;-3.81;75.66;101265.95;1626069;88;21876;-79
2020/12/23 00:34:39;;;;;;;32.42;16.27;;;;;;;-3.90;75.88;101270.76;1626014;88;21360;-79
2020/12/23 00:37:45;;;;;;;59.53;33.85;;;;;;;-3.91;76.06;101277.01;1625352;87;21398;-79
2020/12/23 00:40:51;;;;;;;35.45;19.05;;;;;;;-3.96;76.15;101273.65;1625637;87;21322;-79
2020/12/23 00:44:00;;;;;;;46.25;27.95;;;;;;;-4.03;76.43;101266.83;1623178;88;21337;-78
2020/12/23 00:47:05;;;;;;;45.05;25.25;;;;;;;-4.01;76.74;101267.62;1623232;88;21282;-79
2020/12/23 00:50:10;;;;;;;56.90;34.15;;;;;;;-3.98;76.91;101266.64;1622247;88;21369;-79
2020/12/23 00:53:17;;;;;;;66.55;38.88;;;;;;;-4.02;77.08;101276.58;1622374;88;21373;-79
2020/12/23 00:56:23;;;;;;;51.83;31.57;;;;;;;-4.12;77.34;101275.20;1623271;88;21381;-79
2020/12/23 00:59:28;;;;;;;41.33;20.48;;;;;;;-4.12;77.72;101269.85;1623385;88;21333;-79
2020/12/23 01:02:34;;;;;;;41.42;21.80;;;;;;;-4.17;78.09;101257.14;1622829;88;21377;-78
2020/12/23 01:05:40;;;;;;;31.00;15.70;;;;;;;-4.18;78.37;101258.08;1622903;88;21356;-79
2020/12/23 01:08:48;;;;;;;42.48;19.37;;;;;;;-4.12;78.57;101249.34;1623243;88;21227;-79
2020/12/23 01:11:55;;;;;;;40.23;22.62;;;;;;;-4.07;78.65;101254.51;1623264;88;21325;-79
2020/12/23 01:15:02;;;;;;;58.02;35.05;;;;;;;-4.05;78.67;101251.30;1623298;88;21369;-79
2020/12/23 01:18:07;;;;;;;34.75;18.85;;;;;;;-4.10;78.74;101242.59;1623132;88;21274;-79
2020/12/23 01:21:15;;;;;;;49.60;25.90;;;;;;;-4.15;79.12;101243.23;1622660;88;21365;-79
2020/12/23 01:24:20;;;;;;;37.08;16.55;;;;;;;-4.15;79.51;101240.56;1604346;88;21341;-79
2020/12/23 01:27:26;;;;;;;52.65;28.75;;;;;;;-4.19;79.79;101237.17;1622098;88;21333;-79
2020/12/23 01:30:31;;;;;;;63.68;38.13;;;;;;;-4.28;80.22;101233.95;1622013;88;21341;-79
2020/12/23 01:33:36;;;;;;;71.15;42.80;;;;;;;-4.37;80.63;101229.40;1622291;88;21368;-79
2020/12/23 01:36:45;;;;;;;73.50;50.60;;;;;;;-4.39;81.01;101223.23;1622429;87;21863;-79
2020/12/23 01:39:51;;;;;;;95.00;65.08;;;;;;;-4.41;81.43;101221.09;1623281;88;21340;-79
2020/12/23 01:42:57;;;;;;;50.00;30.27;;;;;;;-4.43;81.85;101214.05;1626892;87;21868;-79
2020/12/23 01:46:05;;;;;;;121.25;87.80;;;;;;;-4.47;82.10;101205.31;1629891;88;21328;-79
2020/12/23 01:49:13;;;;;;;47.40;23.67;;;;;;;-4.53;82.45;101202.86;1629891;88;21222;-79
2020/12/23 01:52:19;;;;;;;56.28;34.18;;;;;;;-4.59;82.79;101209.78;1631057;88;21353;-79
2020/12/23 01:55:24;;;;;;;33.75;18.67;;;;;;;-4.56;83.10;101213.67;1631200;88;21404;-80
2020/12/23 01:58:30;;;;;;;48.83;22.30;;;;;;;-4.57;83.31;101207.91;1629927;88;21332;-79
2020/12/23 02:01:37;;;;;;;42.33;25.65;;;;;;;-4.52;83.54;101201.92;1629644;88;21344;-78
2020/12/23 02:04:44;;;;;;;48.38;28.83;;;;;;;-4.51;83.70;101207.70;1612690;88;21404;-78
2020/12/23 02:07:50;;;;;;;46.90;25.80;;;;;;;-4.50;83.80;101202.75;1629371;88;21242;-79
2020/12/23 02:10:56;;;;;;;46.35;24.63;;;;;;;-4.48;83.91;101203.55;1613060;88;21888;-79
2020/12/23 02:14:01;;;;;;;45.58;20.17;;;;;;;-4.47;83.97;101199.08;1613263;88;21381;-79
2020/12/23 02:17:07;;;;;;;46.88;22.07;;;;;;;-4.43;84.17;101194.89;1631071;88;21864;-79
2020/12/23 02:20:18;;;;;;;55.12;32.70;;;;;;;-4.38;84.43;101185.36;1629861;88;21813;-79
2020/12/23 02:23:24;;;;;;;57.03;32.55;;;;;;;-4.29;84.47;101189.48;1630819;88;22076;-79
2020/12/23 02:26:30;;;;;;;41.35;24.85;;;;;;;-4.40;84.12;101190.78;1631134;88;21439;-79
2020/12/23 02:29:36;;;;;;;45.25;23.90;;;;;;;-4.53;84.19;101194.84;1631066;88;21828;-79
2020/12/23 02:32:43;;;;;;;55.08;32.05;;;;;;;-4.49;84.51;101187.59;1631156;88;21758;-79
2020/12/23 02:35:49;;;;;;;66.10;43.70;;;;;;;-4.43;84.61;101186.88;1631153;88;21337;-79
2020/12/23 02:38:55;;;;;;;65.70;42.85;;;;;;;-4.40;84.49;101188.11;1631334;88;22186;-79
2020/12/23 02:42:05;;;;;;;37.65;17.98;;;;;;;-4.45;84.32;101191.42;1630727;88;21309;-79
2020/12/23 02:45:10;;;;;;;44.10;23.27;;;;;;;-4.45;84.37;101193.23;1624847;88;21278;-79
2020/12/23 02:48:15;;;;;;;39.90;19.65;;;;;;;-4.43;84.42;101191.36;1625929;88;21340;-80
2020/12/23 02:51:20;;;;;;;37.70;16.93;;;;;;;-4.47;84.39;101183.95;1626055;88;21337;-79
2020/12/23 02:54:25;;;;;;;32.23;16.82;;;;;;;-4.50;84.40;101184.06;1625533;88;21928;-79
2020/12/23 02:57:31;;;;;;;40.83;21.27;;;;;;;-4.46;84.67;101184.82;1625610;88;21874;-79
2020/12/23 03:00:37;;;;;;;51.88;29.50;;;;;;;-4.37;84.80;101183.99;1625825;88;21341;-78
2020/12/23 03:03:43;;;;;;;76.87;53.70;;;;;;;-4.37;84.51;101172.44;1624674;88;21440;-78
2020/12/23 03:06:48;;;;;;;34.95;18.65;;;;;;;-4.45;84.38;101178.07;1624533;88;21278;-78
2020/12/23 03:09:55;;;;;;;59.65;29.40;;;;;;;-4.50;84.38;101168.03;1624473;88;21356;-78
2020/12/23 03:13:00;;;;;;;47.30;33.65;;;;;;;-4.51;84.68;101163.63;1624473;88;21408;-78
2020/12/23 03:16:05;;;;;;;42.03;27.62;;;;;;;-4.55;84.80;101164.67;1625671;88;21404;-78
2020/12/23 03:19:11;;;;;;;51.20;33.42;;;;;;;-4.54;85.02;101171.75;1624581;88;21923;-78
2020/12/23 03:22:17;;;;;;;38.67;21.42;;;;;;;-4.55;85.11;101175.36;1624541;88;21797;-78
2020/12/23 03:25:23;;;;;;;58.83;38.40;;;;;;;-4.59;85.19;101169.73;1624985;88;21373;-78
2020/12/23 03:28:30;;;;;;;47.08;24.70;;;;;;;-4.62;85.32;101169.83;1626096;88;21343;-79
2020/12/23 03:31:36;;;;;;;36.58;17.35;;;;;;;-4.60;85.54;101165.79;1625976;88;21535;-79
2020/12/23 03:34:42;;;;;;;43.68;25.62;;;;;;;-4.57;85.68;101174.53;1624712;88;21234;-79
2020/12/23 03:37:48;;;;;;;33.67;17.98;;;;;;;-4.46;85.83;101179.48;1624965;87;21384;-79
2020/12/23 03:40:54;;;;;;;30.80;15.85;;;;;;;-4.39;85.71;101173.81;1625075;88;21801;-79
2020/12/23 03:44:02;;;;;;;30.37;15.35;;;;;;;-4.38;85.44;101174.21;1626623;87;21206;-78
2020/12/23 03:47:09;;;;;;;32.08;16.80;;;;;;;-4.36;85.38;101178.18;1631100;88;21863;-78
2020/12/23 03:50:16;;;;;;;35.35;18.07;;;;;;;-4.33;85.34;101176.70;1629912;88;21337;-79
2020/12/23 03:53:22;;;;;;;41.28;19.42;;;;;;;-4.24;85.33;101183.48;1631269;88;21587;-79
2020/12/23 03:56:28;;;;;;;45.03;20.55;;;;;;;-4.23;84.92;101182.58;1630960;88;21317;-78
2020/12/23 03:59:33;;;;;;;29.92;14.63;;;;;;;-4.22;84.93;101181.64;1631275;88;21275;-78
2020/12/23 04:02:39;;;;;;;37.15;18.17;;;;;;;-4.17;84.79;101178.32;1630285;88;21337;-79
2020/12/23 04:05:45;;;;;;;41.68;19.05;;;;;;;-4.21;84.51;101179.37;1630617;88;21340;-78
2020/12/23 04:08:52;;;;;;;28.62;15.43;;;;;;;-4.19;84.58;101176.16;1631343;88;21964;-78
2020/12/23 04:11:59;;;;;;;35.50;17.60;;;;;;;-4.15;84.56;101183.13;1631182;88;21336;-79
2020/12/23 04:15:03;;;;;;;34.03;18.10;;;;;;;-4.17;84.41;101176.98;1630690;88;21368;-79
2020/12/23 04:18:10;;;;;;;35.85;17.45;;;;;;;-4.17;84.34;101176.52;1631137;88;21226;-79
2020/12/23 04:21:15;;;;;;;38.67;18.30;;;;;;;-4.15;84.20;101177.78;1631005;88;21364;-79
2020/12/23 04:24:21;;;;;;;40.10;21.10;;;;;;;-4.20;84.18;101173.09;1631104;88;21369;-79
2020/12/23 04:27:27;;;;;;;38.55;17.35;;;;;;;-4.18;84.22;101168.57;1631118;88;22401;-79
2020/12/23 04:30:34;;;;;;;41.85;20.55;;;;;;;-4.19;84.17;101168.14;1631062;88;21396;-79
2020/12/23 04:33:41;;;;;;;42.75;18.05;;;;;;;-4.25;84.06;101168.39;1629924;88;21380;-78
2020/12/23 04:36:47;;;;;;;32.93;15.23;;;;;;;-4.29;84.25;101166.30;1630016;86;21351;-79
2020/12/23 04:39:54;;;;;;;49.88;26.75;;;;;;;-4.27;84.42;101174.28;1631158;88;21222;-78
2020/12/23 04:43:01;;;;;;;49.65;19.92;;;;;;;-4.34;84.33;101175.44;1629920;88;21382;-79
2020/12/23 04:46:06;;;;;;;36.42;19.57;;;;;;;-4.41;84.42;101184.17;1599407;89;21308;-79
2020/12/23 04:49:13;;;;;;;43.75;19.67;;;;;;;-4.40;84.63;101176.09;1598968;89;21373;-79
2020/12/23 04:52:19;;;;;;;38.00;18.45;;;;;;;-4.35;84.74;101179.05;1600193;89;21358;-79
2020/12/23 04:55:24;;;;;;;33.88;15.48;;;;;;;-4.33;84.70;101173.16;1600044;89;21264;-79
2020/12/23 04:58:32;;;;;;;39.42;19.12;;;;;;;-4.28;84.68;101168.51;1599158;89;21886;-79
2020/12/23 05:01:39;;;;;;;34.38;15.65;;;;;;;-4.32;84.45;101169.13;1599132;89;21351;-79
2020/12/23 05:04:46;;;;;;;41.30;18.95;;;;;;;-4.30;84.46;101169.91;1599882;89;21264;-80
2020/12/23 05:07:55;;;;;;;47.90;21.17;;;;;;;-4.34;84.49;101160.75;1600299;89;21343;-79
2020/12/23 05:11:02;;;;;;;58.02;33.67;;;;;;;-4.41;84.73;101165.01;1600262;89;21228;-79
2020/12/23 05:14:15;;;;;;;43.33;26.50;;;;;;;-4.40;84.89;101158.73;1600359;89;21169;-79
2020/12/23 05:17:25;;;;;;;41.75;19.87;;;;;;;-4.45;84.89;101159.37;1599413;89;21890;-79
2020/12/23 05:20:30;;;;;;;42.05;22.65;;;;;;;-4.48;85.06;101168.83;1581446;89;21366;-79
2020/12/23 05:23:39;;;;;;;57.20;34.45;;;;;;;-4.52;85.27;101161.00;1573359;89;21354;-79
2020/12/23 05:26:46;;;;;;;36.68;18.17;;;;;;;-4.51;85.43;101168.97;1599714;89;21343;-79
2020/12/23 05:29:55;;;;;;;45.98;22.30;;;;;;;-4.50;85.47;101169.37;1600466;89;21303;-79
2020/12/23 05:33:04;;;;;;;49.23;30.92;;;;;;;-4.43;85.55;101172.19;1580730;89;21350;-79
2020/12/23 05:36:18;;;;;;;45.08;26.12;;;;;;;-4.40;85.41;101172.08;1599699;89;22627;-79
2020/12/23 05:39:25;;;;;;;49.75;29.02;;;;;;;-4.34;85.38;101173.64;1600253;89;21355;-79
2020/12/23 05:42:31;;;;;;;47.10;27.37;;;;;;;-4.28;85.25;101178.75;1600257;89;21354;-79
2020/12/23 05:45:38;;;;;;;43.48;20.68;;;;;;;-4.24;84.89;101176.81;1573543;89;21850;-79
2020/12/23 05:48:46;;;;;;;55.65;34.27;;;;;;;-4.25;84.56;101177.75;1612674;89;21237;-79
2020/12/23 05:51:52;;;;;;;51.05;23.42;;;;;;;-4.27;84.35;101175.15;1612470;89;21975;-80
2020/12/23 05:55:01;;;;;;;76.25;52.17;;;;;;;-4.24;84.44;101175.47;1624522;88;21248;-79
2020/12/23 05:58:06;;;;;;;45.28;20.75;;;;;;;-4.14;84.43;101169.72;1622583;87;21342;-79
2020/12/23 06:01:14;;;;;;;58.25;34.20;;;;;;;-4.10;84.24;101165.09;1609684;88;21343;-79
2020/12/23 06:04:22;;;;;;;36.30;22.77;;;;;;;-4.06;83.98;101173.40;1611789;89;21400;-80
2020/12/23 06:07:29;;;;;;;44.40;28.00;;;;;;;-4.14;83.73;101168.39;1610487;89;21372;-79
2020/12/23 06:10:35;;;;;;;83.67;58.80;;;;;;;-4.16;83.69;101162.22;1643113;87;21370;-79
2020/12/23 06:13:51;;;;;;;44.15;25.60;;;;;;;-4.25;83.61;101155.91;1607298;86;21419;-79
2020/12/23 06:17:12;;;;;;;52.03;30.37;;;;;;;-4.36;83.63;101158.15;1636810;87;21794;-78
2020/12/23 06:20:19;;;;;;;65.83;44.03;;;;;;;-4.37;83.92;101164.42;1624583;86;21423;-79
2020/12/23 06:23:35;;;;;;;36.28;19.67;;;;;;;-4.32;84.03;101159.77;1633044;87;21368;-79
2020/12/23 06:26:43;;;;;;;59.95;39.42;;;;;;;-4.25;84.02;101161.25;1616534;87;21363;-79
2020/12/23 06:29:51;;;;;;;40.88;23.52;;;;;;;-4.20;84.02;101160.59;1635268;87;21300;-77
2020/12/23 06:32:57;;;;;;;46.92;28.80;;;;;;;-4.15;84.01;101165.75;1626906;87;21344;-78
2020/12/23 06:36:02;;;;;;;69.27;46.30;;;;;;;-4.04;83.99;101164.00;1636009;86;21327;-79
2020/12/23 06:39:46;;;;;;;63.30;41.63;;;;;;;-3.99;83.69;101166.02;1619719;87;21335;-78
2020/12/23 06:42:55;;;;;;;46.80;24.82;;;;;;;-4.02;83.18;101173.68;1628651;86;21830;-78
2020/12/23 06:46:04;;;;;;;44.15;28.00;;;;;;;-4.06;82.98;101167.19;1626591;86;21320;-79
2020/12/23 06:49:21;;;;;;;48.60;23.87;;;;;;;-4.05;82.92;101166.25;1614839;87;21855;-79
2020/12/23 06:52:38;;;;;;;31.02;19.98;;;;;;;-4.00;82.84;101172.27;1619714;86;22543;-79
2020/12/23 06:55:55;;;;;;;36.77;17.85;;;;;;;-3.91;82.79;101167.41;1620955;86;21450;-79
2020/12/23 06:59:00;;;;;;;45.70;27.82;;;;;;;-3.82;82.64;101170.65;1621863;87;21259;-79
2020/12/23 07:02:10;;;;;;;67.82;44.65;;;;;;;-3.73;82.50;101174.28;1642245;86;21300;-80
2020/12/23 07:05:20;;;;;;;41.08;26.00;;;;;;;-3.75;81.97;101166.80;1644530;87;21323;-79
2020/12/23 07:08:25;;;;;;;;;;;;;;;-3.77;81.87;101171.33;1646698;86;21394;-80
2020/12/23 07:11:32;;;;;;;55.90;29.30;;;;;;;-3.76;81.92;101165.94;1645907;86;20618;-79
2020/12/23 07:14:36;;;;;;;80.12;47.33;;;;;;;-3.71;81.99;101168.41;1624964;87;21234;-80
2020/12/23 07:17:44;;;;;;;52.48;29.65;;;;;;;-3.63;81.87;101172.95;1645977;86;21387;-79
2020/12/23 07:20:58;;;;;;;55.45;36.38;;;;;;;-3.57;81.64;101167.83;1632031;87;21214;-79
2020/12/23 07:24:04;;;;;;;39.30;22.90;;;;;;;-3.52;81.42;101170.70;1619135;87;21369;-79
2020/12/23 07:27:10;;;;;;;35.48;19.45;;;;;;;-3.47;81.13;101168.70;1616629;88;21868;-80
2020/12/23 07:30:16;;;;;;;36.73;22.48;;;;;;;-3.40;80.95;101171.50;1616295;85;21304;-79
2020/12/23 07:33:26;;;;;;;40.33;25.75;;;;;;;-3.33;80.93;101175.27;1642681;86;21197;-78
2020/12/23 07:36:32;;;;;;;39.58;23.32;;;;;;;-3.33;80.49;101171.25;1647067;86;21989;-80
2020/12/23 07:39:39;;;;;;;40.17;22.02;;;;;;;-3.29;80.41;101178.18;1615088;88;21334;-79
2020/12/23 07:42:45;;;;;;;64.10;44.15;;;;;;;-3.28;80.34;101179.95;1615683;86;21335;-79
2020/12/23 07:45:55;;;;;;;43.48;25.90;;;;;;;-3.21;80.60;101182.27;1617489;87;21674;-80
2020/12/23 07:49:01;;;;;;;29.32;16.62;;;;;;;-3.12;80.32;101182.33;1609413;87;21348;-79
2020/12/23 07:52:09;;;;;;;47.95;19.05;;;;;;;-3.10;80.12;101180.47;1616631;88;21406;-80
2020/12/23 07:55:25;;;;;;;34.33;20.48;;;;;;;-3.09;80.08;101179.53;1632625;87;21284;-79
2020/12/23 07:58:31;;;;;;;37.23;19.50;;;;;;;-3.02;79.93;101179.64;1631699;87;21230;-80
2020/12/23 08:01:36;;;;;;;27.65;14.75;;;;;;;-2.99;79.77;101177.31;1651463;86;21163;-78
2020/12/23 08:04:44;;;;;;;81.50;61.40;;;;;;;-2.95;79.47;101174.42;1649810;85;21746;-79
2020/12/23 08:07:54;;;;;;;39.00;22.45;;;;;;;-2.91;79.23;101175.16;1626409;87;21328;-78
2020/12/23 08:11:00;;;;;;;38.15;21.93;;;;;;;-2.84;79.28;101172.12;1642164;87;21751;-78
2020/12/23 08:14:09;;;;;;;35.33;19.35;;;;;;;-2.81;78.82;101164.42;1619870;88;21331;-78
2020/12/23 08:17:15;;;;;;;34.50;18.98;;;;;;;-2.83;78.53;101167.16;1643699;86;21358;-79
2020/12/23 08:20:22;;;;;;;40.50;24.50;;;;;;;-2.84;78.42;101172.59;1646614;85;21178;-78
2020/12/23 08:23:27;;;;;;;37.60;20.40;;;;;;;-2.84;78.46;101164.09;1648653;85;21181;-79
2020/12/23 08:26:33;;;;;;;30.17;16.57;;;;;;;-2.76;78.72;101158.39;1634639;87;22391;-78
2020/12/23 08:29:40;;;;;;;29.00;14.98;;;;;;;-2.68;78.55;101153.55;1645851;86;21766;-78
2020/12/23 08:32:52;;;;;;;36.83;19.87;;;;;;;-2.66;78.30;101146.78;1649335;86;21335;-79
2020/12/23 08:36:07;;;;;;;32.10;16.73;;;;;;;-2.60;78.12;101143.80;1645902;86;22614;-79
2020/12/23 08:39:14;;;;;;;40.65;26.20;;;;;;;-2.56;77.80;101148.08;1641807;86;21505;-80
2020/12/23 08:42:21;;;;;;;35.52;19.82;;;;;;;-2.55;77.86;101144.45;1647643;86;21312;-80
2020/12/23 08:45:33;;;;;;;35.15;20.27;;;;;;;-2.56;77.50;101132.00;1645942;86;21319;-80
2020/12/23 08:48:39;;;;;;;34.88;17.05;;;;;;;-2.58;77.51;101126.73;1643473;86;21308;-80
2020/12/23 08:51:46;;;;;;;35.13;17.70;;;;;;;-2.59;77.11;101128.13;1637999;86;21902;-80
2020/12/23 08:54:51;;;;;;;50.15;33.15;;;;;;;-2.62;77.20;101122.93;1638642;86;21865;-80
2020/12/23 08:57:58;;;;;;;44.18;22.90;;;;;;;-2.62;77.35;101112.22;1638150;86;21366;-80
2020/12/23 09:01:08;;;;;;;35.15;19.23;;;;;;;-2.63;77.43;101110.48;1639410;87;21293;-80
2020/12/23 09:04:20;;;;;;;53.95;36.80;;;;;;;-2.61;77.55;101115.28;1638984;86;21360;-80
2020/12/23 09:07:29;;;;;;;42.93;22.52;;;;;;;-2.60;77.61;101113.00;1642662;86;22628;-80
2020/12/23 09:10:35;;;;;;;42.43;25.82;;;;;;;-2.55;77.71;101106.08;1638551;86;21339;-80
2020/12/23 09:13:41;;;;;;;37.28;20.77;;;;;;;-2.55;77.66;101107.42;1636700;87;21272;-80
2020/12/23 09:16:49;;;;;;;29.50;17.52;;;;;;;-2.53;77.71;101113.12;1640229;86;21233;-80
2020/12/23 09:20:08;;;;;;;31.30;17.92;;;;;;;-2.54;77.47;101107.81;1639439;86;21900;-78
2020/12/23 09:23:16;;;;;;;37.40;20.20;;;;;;;-2.52;77.61;101102.80;1640055;86;21875;-79
2020/12/23 09:26:26;;;;;;;61.75;40.28;;;;;;;-2.47;77.78;101107.45;1630333;87;21351;-79
2020/12/23 09:29:32;;;;;;;41.05;24.15;;;;;;;-2.43;77.79;101102.35;1628802;87;21276;-78
2020/12/23 09:32:38;;;;;;;31.40;18.60;;;;;;;-2.35;77.75;101098.84;1623966;87;21972;-80
2020/12/23 09:35:51;;;;;;;40.45;20.32;;;;;;;-2.32;77.67;101101.34;1630576;87;21276;-79
2020/12/23 09:38:56;;;;;;;51.95;23.20;;;;;;;-2.25;77.70;101087.67;1626788;87;21434;-78
2020/12/23 09:42:16;;;;;;;49.88;22.87;;;;;;;-2.17;77.58;101095.70;1639670;87;21292;-79
2020/12/23 09:45:21;;;;;;;43.30;22.73;;;;;;;-2.13;77.30;101087.04;1645413;85;21376;-79
2020/12/23 09:48:29;;;;;;;45.45;21.75;;;;;;;-2.10;77.20;101084.22;1637517;86;21311;-79
2020/12/23 09:51:35;;;;;;;52.38;25.10;;;;;;;-2.03;77.12;101083.42;1640749;85;21380;-79
2020/12/23 09:54:43;;;;;;;47.45;24.57;;;;;;;-2.06;76.83;101084.46;1646833;85;21822;-79
2020/12/23 09:57:50;;;;;;;54.38;24.98;;;;;;;-2.01;77.23;101086.44;1647681;86;21916;-79
2020/12/23 10:00:56;;;;;;;56.58;26.10;;;;;;;-1.95;77.11;101091.95;1622595;86;22054;-79
2020/12/23 10:04:03;;;;;;;55.98;26.23;;;;;;;-1.93;77.00;101085.58;1639881;85;21289;-80
2020/12/23 10:07:11;;;;;;;64.27;29.82;;;;;;;-1.86;76.99;101084.78;1619258;87;22151;-79
2020/12/23 10:10:18;;;;;;;57.30;27.17;;;;;;;-1.78;76.98;101080.38;1642606;85;21352;-79
2020/12/23 10:13:24;;;;;;;76.87;34.92;;;;;;;-1.68;76.81;101072.25;1639336;86;21174;-79
2020/12/23 10:16:32;;;;;;;72.55;33.20;;;;;;;-1.62;76.62;101067.42;1631587;86;21304;-78
2020/12/23 10:19:38;;;;;;;77.35;35.05;;;;;;;-1.56;76.58;101063.06;1623790;87;21245;-78
2020/12/23 10:22:43;;;;;;;73.07;31.52;;;;;;;-1.44;76.54;101062.91;1630673;87;21335;-78
2020/12/23 10:25:48;;;;;;;74.95;35.50;;;;;;;-1.38;76.12;101067.07;1640463;87;21328;-79
2020/12/23 10:28:57;;;;;;;74.95;30.77;;;;;;;-1.42;75.97;101060.99;1642076;85;21214;-78
2020/12/23 10:32:02;;;;;;;68.83;31.17;;;;;;;-1.39;75.95;101062.19;1639775;86;21178;-78
2020/12/23 10:35:08;;;;;;;75.30;32.80;;;;;;;-1.35;75.86;101052.16;1626460;87;21672;-79
2020/12/23 10:38:13;;;;;;;81.10;34.88;;;;;;;-1.35;75.50;101053.02;1644759;86;21303;-78
2020/12/23 10:41:18;;;;;;;67.37;29.42;;;;;;;-1.33;75.59;101044.40;1644744;86;21298;-78
2020/12/23 10:44:25;;;;;;;80.65;34.50;;;;;;;-1.25;75.51;101048.02;1638836;86;21356;-78
2020/12/23 10:47:29;;;;;;;69.67;33.40;;;;;;;-1.29;75.01;101045.97;1616925;87;21358;-78
2020/12/23 10:50:35;;;;;;;71.10;32.48;;;;;;;-1.34;74.76;101042.67;1638159;87;21882;-78
2020/12/23 10:53:43;;;;;;;89.47;38.98;;;;;;;-1.42;74.68;101035.50;1644674;85;21947;-78
2020/12/23 10:56:49;;;;;;;80.95;37.10;;;;;;;-1.42;74.75;101038.66;1631479;87;21211;-79
2020/12/23 10:59:54;;;;;;;92.47;34.95;;;;;;;-1.41;75.02;101037.70;1614988;88;21260;-79
2020/12/23 11:03:00;;;;;;;68.17;29.45;;;;;;;-1.40;75.15;101033.62;1619282;88;21322;-80
2020/12/23 11:06:07;;;;;;;75.72;34.13;;;;;;;-1.40;75.35;101030.07;1631920;86;22155;-79
2020/12/23 11:09:12;;;;;;;81.10;35.65;;;;;;;-1.42;75.37;101028.79;1651372;86;21846;-79
2020/12/23 11:12:18;;;;;;;76.55;35.17;;;;;;;-1.51;75.11;101030.63;1645714;86;21394;-79
2020/12/23 11:15:25;;;;;;;85.80;35.98;;;;;;;-1.51;75.33;101028.41;1651919;86;21661;-79
2020/12/23 11:18:30;;;;;;;91.08;37.35;;;;;;;-1.51;75.25;101022.57;1623598;87;22324;-78
2020/12/23 11:21:36;;;;;;;83.35;37.00;;;;;;;-1.54;75.41;101029.47;1651500;85;21808;-78
2020/12/23 11:24:42;;;;;;;84.07;37.88;;;;;;;-1.56;75.51;101027.32;1653423;86;21299;-78
2020/12/23 11:27:49;;;;;;;114.70;47.15;;;;;;;-1.54;75.50;101024.09;1651047;86;21720;-77
2020/12/23 11:30:59;;;;;;;92.23;38.13;;;;;;;-1.56;75.40;101025.50;1654343;86;21306;-78
2020/12/23 11:34:07;;;;;;;84.17;29.92;;;;;;;-1.58;75.24;101023.86;1648706;85;21340;-78
2020/12/23 11:37:14;;;;;;;80.92;34.50;;;;;;;-1.58;75.49;101026.55;1614856;86;21343;-78
2020/12/23 11:40:19;;;;;;;83.35;33.83;;;;;;;-1.61;75.55;101020.86;1646966;86;21894;-78
2020/12/23 11:43:26;;;;;;;82.53;35.85;;;;;;;-1.65;75.66;101014.39;1648873;86;22455;-78
2020/12/23 11:46:33;;;;;;;82.62;33.02;;;;;;;-1.66;75.96;101016.69;1621878;86;21310;-78
2020/12/23 11:49:40;;;;;;;81.82;35.40;;;;;;;-1.65;76.29;101019.28;1602867;88;21870;-78
2020/12/23 11:52:46;;;;;;;75.52;33.83;;;;;;;-1.62;76.23;101020.47;1622648;87;21359;-78
2020/12/23 11:55:53;;;;;;;75.55;35.95;;;;;;;-1.58;75.91;101021.18;1631099;87;21851;-78
2020/12/23 11:58:59;;;;;;;73.28;34.30;;;;;;;-1.53;75.99;101019.12;1658130;85;21331;-78
2020/12/23 12:02:06;;;;;;;77.08;32.42;;;;;;;-1.43;75.89;101014.13;1658586;85;21408;-78
2020/12/23 12:05:11;;;;;;;76.65;34.30;;;;;;;-1.39;75.69;101017.03;1635219;86;21319;-78
2020/12/23 12:08:18;;;;;;;73.62;33.53;;;;;;;-1.46;75.16;101012.45;1651943;85;21331;-78
2020/12/23 12:11:26;;;;;;;86.35;37.60;;;;;;;-1.46;75.26;101017.82;1655092;85;21375;-78
2020/12/23 12:14:31;;;;;;;76.75;37.60;;;;;;;-1.39;75.39;101009.85;1655704;85;21935;-78
2020/12/23 12:17:37;;;;;;;66.70;33.55;;;;;;;-1.33;75.38;101009.51;1654757;85;21757;-79
2020/12/23 12:20:42;;;;;;;73.35;29.23;;;;;;;-1.25;75.40;101002.39;1629397;87;21328;-78
2020/12/23 12:23:42;;;;;;;72.95;30.30;;;;;;;-1.25;74.91;100992.13;1655357;85;21273;-78
2020/12/23 12:26:40;;;;;;;55.28;26.48;;;;;;;-1.36;74.58;101000.30;1633276;86;21356;-78
2020/12/23 12:29:46;;;;;;;56.15;22.93;;;;;;;-1.39;74.63;101005.83;1630281;86;21331;-78
2020/12/23 12:32:51;;;;;;;57.00;22.73;;;;;;;-1.42;74.37;101002.44;1639159;86;21220;-78
2020/12/23 12:35:56;;;;;;;57.40;27.73;;;;;;;-1.47;74.31;101007.19;1643172;86;21878;-78
2020/12/23 12:39:03;;;;;;;53.45;24.35;;;;;;;-1.47;74.08;101009.39;1639617;86;21331;-78
2020/12/23 12:42:10;;;;;;;68.70;28.83;;;;;;;-1.48;74.02;101010.83;1642110;86;21346;-78
2020/12/23 12:45:17;;;;;;;71.85;31.97;;;;;;;-1.40;74.14;101008.12;1642477;86;21850;-78
2020/12/23 12:48:27;;;;;;;68.52;28.75;;;;;;;-1.26;74.16;101003.83;1644435;86;21340;-78
2020/12/23 12:51:35;;;;;;;67.03;30.08;;;;;;;-1.12;73.83;101011.98;1638811;86;21972;-78
2020/12/23 12:54:42;;;;;;;94.32;33.02;;;;;;;-1.07;73.59;101020.17;1635804;86;21335;-78
2020/12/23 12:57:49;;;;;;;36.08;19.67;;;;;;;-1.09;73.41;101014.48;1603984;89;21665;-78
2020/12/23 13:00:55;;;;;;;22.22;10.90;;;;;;;-1.09;73.23;101014.48;1596579;88;21244;-79
2020/12/23 13:04:01;;;;;;;9.70;5.72;;;;;;;-1.15;72.33;101009.46;1604847;89;21429;-78
2020/12/23 13:07:08;;;;;;;7.20;3.95;;;;;;;-1.26;71.36;101016.77;1602019;89;21225;-77
2020/12/23 13:10:07;;;;;;;5.08;3.17;;;;;;;-1.42;70.76;101023.42;1604337;89;21228;-77
2020/12/23 13:13:14;;;;;;;6.37;3.58;;;;;;;-1.52;70.50;101021.33;1610524;88;21319;-77
2020/12/23 13:16:20;;;;;;;8.80;4.30;;;;;;;-1.58;70.56;101022.52;1609974;87;21338;-81
2020/12/23 13:19:27;;;;;;;6.50;3.65;;;;;;;-1.55;70.52;101025.05;1603703;89;21327;-80
2020/12/23 13:22:33;;;;;;;6.83;4.03;;;;;;;-1.47;70.62;101026.83;1602458;88;21283;-79
2020/12/23 13:25:38;;;;;;;6.35;3.45;;;;;;;-1.36;70.33;101024.94;1606245;88;21339;-79
2020/12/23 13:29:00;;;;;;;7.17;4.12;;;;;;;-1.28;70.36;101018.66;1603709;89;21836;-80
2020/12/23 13:31:55;;;;;;;4.50;3.08;;;;;;;-1.21;70.40;101020.55;1598560;89;21318;-79
2020/12/23 13:35:01;;;;;;;6.47;3.72;;;;;;;-1.16;70.04;101023.84;1578634;90;21352;-78
2020/12/23 13:38:07;;;;;;;4.97;2.50;;;;;;;-1.14;69.88;101017.90;1571686;89;21366;-78
2020/12/23 13:41:14;;;;;;;3.92;2.15;;;;;;;-1.17;69.35;101022.98;1596678;89;21803;-78
2020/12/23 13:44:19;;;;;;;4.45;2.92;;;;;;;-1.26;69.07;101023.48;1578232;89;21319;-78
2020/12/23 13:47:26;;;;;;;4.03;2.65;;;;;;;-1.29;69.07;101013.77;1605304;89;21304;-78
2020/12/23 13:50:36;;;;;;;17.75;8.20;;;;;;;-1.26;69.11;101009.20;1602352;89;21338;-77
2020/12/23 13:53:39;;;;;;;21.73;12.23;;;;;;;-1.23;69.14;101015.23;1605092;89;21229;-77
2020/12/23 13:56:45;;;;;;;31.45;16.23;;;;;;;-1.24;68.81;101010.83;1627790;86;21339;-78
2020/12/23 13:59:50;;;;;;;43.48;23.57;;;;;;;-1.29;68.73;101015.58;1622832;86;21223;-78
2020/12/23 14:02:58;;;;;;;31.23;18.98;;;;;;;-1.29;69.03;101019.61;1617633;88;21352;-77
2020/12/23 14:06:06;;;;;;;29.77;16.52;;;;;;;-1.29;69.24;101020.47;1739881;82;21723;-77
2020/12/23 14:09:13;;;;;;;24.77;15.03;;;;;;;-1.27;69.30;101012.80;1778473;80;21306;-77